Time;durP1;ratioP1;P1;durP2;ratioP2;P2;SDS_P1;SDS_P2;PMS_P1;PMS_P2;Temp;Humidity;BMP_temperature;BMP_pressure;BME280_temperature;BME280_humidity;BME280_pressure;Samples;Min_cycle;Max_cycle;Signal;HPM_P1;HPM_P2
2023/02/24 00:00:32;;;;;;;0.80;0.50;;;;;;;1.25;69.93;100208.41;4980088;28;20050;-74
2023/02/24 00:03:04;;;;;;;0.90;0.38;;;;;;;1.24;70.43;100209.28;4961141;28;20054;-74
2023/02/24 00:05:35;;;;;;;1.25;0.70;;;;;;;1.21;69.75;100204.09;4984892;28;20045;-74
2023/02/24 00:08:02;;;;;;;0.95;0.30;;;;;;;1.21;69.90;100204.09;4982421;28;20518;-75
2023/02/24 00:10:29;;;;;;;0.85;0.47;;;;;;;1.21;70.08;100198.97;4983365;28;20058;-74
2023/02/24 00:12:56;;;;;;;2.78;0.40;;;;;;;1.19;69.47;100186.06;4982798;28;20047;-74
2023/02/24 00:15:23;;;;;;;0.90;0.50;;;;;;;1.20;69.84;100186.97;4979354;28;20417;-74
2023/02/24 00:17:50;;;;;;;0.70;0.57;;;;;;;1.19;70.08;100186.06;4980824;28;20052;-74
2023/02/24 00:20:18;;;;;;;0.50;0.50;;;;;;;1.11;70.64;100168.00;4985203;28;20081;-74
2023/02/24 00:22:46;;;;;;;0.77;0.40;;;;;;;1.16;69.43;100180.03;4983888;28;20057;-73
2023/02/24 00:25:13;;;;;;;0.50;0.30;;;;;;;1.16;70.20;100182.59;4983710;28;20632;-74
2023/02/24 00:27:41;;;;;;;0.47;0.32;;;;;;;1.15;69.77;100183.47;4984772;28;20479;-74
2023/02/24 00:30:11;;;;;;;0.57;0.35;;;;;;;1.09;70.31;100171.41;4986891;28;20054;-74
2023/02/24 00:32:38;;;;;;;1.70;0.60;;;;;;;1.12;70.05;100172.28;4982642;28;20499;-73
2023/02/24 00:35:06;;;;;;;0.95;0.50;;;;;;;1.12;70.32;100159.44;4986943;28;20051;-74
2023/02/24 00:37:32;;;;;;;2.85;0.40;;;;;;;1.10;70.06;100155.13;4983669;28;20057;-74
2023/02/24 00:40:01;;;;;;;0.82;0.40;;;;;;;1.12;70.24;100150.84;4983043;28;20322;-75
2023/02/24 00:42:28;;;;;;;0.50;0.40;;;;;;;1.12;70.03;100140.56;4983370;28;20051;-74
2023/02/24 00:44:55;;;;;;;0.98;0.47;;;;;;;1.11;70.24;100142.28;4981982;28;20112;-74
2023/02/24 00:47:22;;;;;;;1.85;0.40;;;;;;;1.04;69.64;100129.34;4984706;28;20050;-73
2023/02/24 00:49:49;;;;;;;1.77;0.50;;;;;;;1.04;70.03;100119.91;4983279;28;20049;-74
2023/02/24 00:52:19;;;;;;;0.73;0.50;;;;;;;1.08;70.49;100121.69;4983255;28;20042;-74
2023/02/24 00:54:48;;;;;;;0.50;0.32;;;;;;;1.07;70.12;100119.94;4977069;28;20086;-74
2023/02/24 00:57:19;;;;;;;0.60;0.50;;;;;;;1.05;70.02;100116.50;4986497;28;20054;-74
2023/02/24 00:59:47;;;;;;;0.60;0.40;;;;;;;1.07;70.26;100114.78;4984020;28;20050;-74
2023/02/24 01:02:15;;;;;;;0.60;0.40;;;;;;;1.02;70.34;100100.16;4984847;28;20070;-74
2023/02/24 01:04:43;;;;;;;0.45;0.45;;;;;;;1.05;69.90;100101.06;4985016;28;20065;-74
2023/02/24 01:07:12;;;;;;;1.35;0.50;;;;;;;1.06;70.16;100113.06;4979699;28;20109;-74
2023/02/24 01:09:42;;;;;;;0.95;0.40;;;;;;;1.04;69.44;100094.19;4982605;28;20097;-74
2023/02/24 01:15:12;;;;;;;0.80;0.55;;;;;;;1.05;69.95;100095.03;4935662;29;20078;-75
2023/02/24 01:17:39;;;;;;;4.05;0.57;;;;;;;1.01;69.92;100083.88;4935049;29;20062;-74
2023/02/24 01:20:15;;;;;;;0.75;0.40;;;;;;;1.05;69.74;100084.75;4956215;28;20057;-74
2023/02/24 01:22:43;;;;;;;0.95;0.50;;;;;;;1.04;69.61;100081.31;4986165;28;20157;-74
2023/02/24 01:25:10;;;;;;;0.60;0.47;;;;;;;1.04;69.58;100077.91;4982551;28;20051;-74
2023/02/24 01:27:38;;;;;;;1.52;0.40;;;;;;;1.02;69.89;100083.00;4988643;28;20885;-74
2023/02/24 01:30:07;;;;;;;1.25;0.50;;;;;;;1.03;69.64;100077.03;4982124;28;20137;-74
2023/02/24 01:32:36;;;;;;;1.05;0.43;;;;;;;1.04;70.11;100086.47;4984005;28;20046;-74
2023/02/24 01:35:03;;;;;;;1.35;0.40;;;;;;;1.04;69.89;100083.03;4987701;28;20058;-74
2023/02/24 01:37:30;;;;;;;1.20;0.50;;;;;;;1.04;70.01;100077.91;4981481;28;20137;-74
2023/02/24 01:39:57;;;;;;;2.50;0.57;;;;;;;1.03;69.84;100076.19;4984621;28;20466;-74
2023/02/24 01:42:25;;;;;;;0.55;0.45;;;;;;;0.96;70.11;100067.53;4982637;28;20047;-75
2023/02/24 01:45:24;;;;;;;1.67;0.60;;;;;;;1.02;69.54;100074.44;4983293;28;20050;-73
2023/02/24 01:47:57;;;;;;;0.50;0.40;;;;;;;1.00;70.36;100066.72;4981552;28;20522;-74
2023/02/24 01:50:26;;;;;;;0.60;0.40;;;;;;;0.99;69.87;100065.00;4983155;28;20050;-74
2023/02/24 01:52:57;;;;;;;0.65;0.40;;;;;;;0.98;70.38;100060.69;4980933;28;20727;-74
2023/02/24 01:55:30;;;;;;;0.60;0.40;;;;;;;0.89;70.36;100047.78;4985504;28;20770;-74
2023/02/24 01:58:00;;;;;;;0.70;0.40;;;;;;;0.98;69.94;100052.13;4984728;28;20138;-73
2023/02/24 02:00:37;;;;;;;0.77;0.40;;;;;;;0.97;70.28;100056.41;4977821;28;20050;-74
2023/02/24 02:03:14;;;;;;;0.43;0.30;;;;;;;0.93;70.62;100041.78;4983090;28;20237;-74
2023/02/24 02:05:44;;;;;;;1.00;0.43;;;;;;;0.88;70.12;100021.22;4979440;28;20057;-74
2023/02/24 02:08:11;;;;;;;1.30;0.55;;;;;;;0.90;69.78;100028.91;4982414;28;20042;-74
2023/02/24 02:10:42;;;;;;;0.70;0.50;;;;;;;0.94;70.02;100033.25;4985271;28;20050;-74
2023/02/24 02:13:11;;;;;;;0.65;0.38;;;;;;;0.92;70.40;100027.22;4983539;28;20462;-74
2023/02/24 02:15:55;;;;;;;0.85;0.32;;;;;;;0.94;70.74;100030.69;4982774;28;20395;-74
2023/02/24 02:18:35;;;;;;;0.55;0.32;;;;;;;0.93;70.01;100023.78;4984188;28;20053;-73
2023/02/24 02:21:29;;;;;;;2.20;0.40;;;;;;;0.93;69.96;100021.22;4985358;28;20176;-74
2023/02/24 02:24:18;;;;;;;2.42;0.35;;;;;;;0.95;70.34;100021.25;4980242;28;20052;-74
2023/02/24 02:27:08;;;;;;;0.60;0.40;;;;;;;0.94;70.35;100015.25;4980103;28;20043;-74
2023/02/24 02:30:00;;;;;;;0.40;0.40;;;;;;;0.94;70.22;100012.69;4983006;28;20072;-74
2023/02/24 02:32:51;;;;;;;1.77;0.47;;;;;;;0.93;69.97;100005.78;4978480;28;20066;-74
2023/02/24 02:35:24;;;;;;;0.70;0.45;;;;;;;0.92;69.93;99998.94;4979054;28;20157;-74
2023/02/24 02:37:56;;;;;;;1.05;0.30;;;;;;;0.94;70.59;99997.25;4982822;28;20046;-74
2023/02/24 02:40:29;;;;;;;0.70;0.40;;;;;;;0.94;69.92;99993.78;4984394;28;20052;-74
2023/02/24 02:43:03;;;;;;;2.45;0.50;;;;;;;0.94;70.00;99994.69;4978250;28;20046;-74
2023/02/24 02:45:40;;;;;;;2.15;0.43;;;;;;;0.95;69.61;99990.41;4980932;28;20487;-74
2023/02/24 02:48:15;;;;;;;0.88;0.38;;;;;;;0.94;70.09;99992.09;4983451;28;20047;-74
2023/02/24 02:50:48;;;;;;;1.38;0.40;;;;;;;0.94;70.02;99992.09;4980087;28;20384;-74
2023/02/24 02:53:19;;;;;;;1.02;0.40;;;;;;;0.92;70.72;99980.94;4982842;28;20042;-74
2023/02/24 02:55:52;;;;;;;0.55;0.40;;;;;;;0.83;70.39;99961.16;4981612;28;20399;-74
2023/02/24 02:58:25;;;;;;;0.80;0.40;;;;;;;0.94;70.34;99974.09;4983589;28;20051;-74
2023/02/24 03:01:01;;;;;;;3.08;0.50;;;;;;;0.91;70.32;99976.63;4981834;28;20054;-74
2023/02/24 03:03:31;;;;;;;0.80;0.40;;;;;;;0.93;70.08;99972.38;4981747;28;20070;-74
2023/02/24 03:06:06;;;;;;;2.58;0.50;;;;;;;0.93;69.87;99972.38;4981727;28;20120;-74
2023/02/24 03:08:36;;;;;;;0.63;0.40;;;;;;;0.86;70.24;99950.03;4981714;28;20395;-73
2023/02/24 03:11:07;;;;;;;0.47;0.40;;;;;;;0.93;70.11;99962.09;4981556;28;20105;-73
2023/02/24 03:13:39;;;;;;;0.70;0.50;;;;;;;0.90;70.56;99962.91;4981970;28;20055;-74
2023/02/24 03:16:09;;;;;;;0.60;0.43;;;;;;;0.92;70.60;99955.22;4983492;28;20476;-75
2023/02/24 03:18:40;;;;;;;0.93;0.40;;;;;;;0.89;70.39;99956.06;4982754;28;20094;-74
2023/02/24 03:21:13;;;;;;;0.40;0.30;;;;;;;0.93;70.77;99956.94;4983111;28;20055;-74
2023/02/24 03:23:46;;;;;;;0.68;0.40;;;;;;;0.92;70.41;99950.09;4980600;28;20050;-74
2023/02/24 03:26:20;;;;;;;1.05;0.32;;;;;;;0.81;70.46;99931.16;4969568;28;20124;-74
2023/02/24 03:29:00;;;;;;;3.45;0.40;;;;;;;0.85;70.60;99941.47;4974879;28;20041;-74
2023/02/24 03:31:31;;;;;;;1.55;0.40;;;;;;;0.90;70.53;99941.50;4972570;28;20081;-75
2023/02/24 03:34:05;;;;;;;0.88;0.40;;;;;;;0.91;70.43;99943.19;4972183;28;20050;-75
2023/02/24 03:36:34;;;;;;;0.95;0.40;;;;;;;0.91;70.19;99932.91;4970033;28;20600;-75
2023/02/24 03:39:04;;;;;;;0.60;0.40;;;;;;;0.88;70.34;99928.63;4968802;28;20050;-75
2023/02/24 03:41:40;;;;;;;0.75;0.40;;;;;;;0.89;69.70;99937.22;4980991;28;20614;-75
2023/02/24 03:44:10;;;;;;;1.00;0.50;;;;;;;0.91;69.79;99932.91;4971950;28;20050;-76
2023/02/24 03:46:38;;;;;;;1.08;0.55;;;;;;;0.90;70.50;99936.34;4967266;28;20062;-76
2023/02/24 03:49:15;;;;;;;1.20;0.57;;;;;;;0.90;70.56;99926.06;4978385;28;20051;-76
2023/02/24 03:51:49;;;;;;;0.63;0.60;;;;;;;0.90;71.01;99932.06;4976979;28;20046;-75
2023/02/24 03:54:33;;;;;;;1.00;0.47;;;;;;;0.90;70.32;99928.63;4979794;28;21067;-75
2023/02/24 03:57:14;;;;;;;0.95;0.50;;;;;;;0.86;70.25;99921.75;4983813;28;20410;-75
2023/02/24 03:59:51;;;;;;;0.80;0.50;;;;;;;0.85;70.30;99912.31;4986278;28;20050;-75
2023/02/24 04:02:24;;;;;;;0.75;0.52;;;;;;;0.91;70.38;99922.63;4986875;28;20061;-75
2023/02/24 04:04:58;;;;;;;1.00;0.50;;;;;;;0.89;70.61;99921.78;4989016;28;20104;-76
2023/02/24 04:07:37;;;;;;;1.73;0.50;;;;;;;0.87;70.20;99908.91;4984638;28;20054;-75
2023/02/24 04:10:09;;;;;;;1.20;0.75;;;;;;;0.83;70.06;99890.91;4985458;28;20042;-75
2023/02/24 04:12:42;;;;;;;1.63;0.65;;;;;;;0.89;70.94;99912.34;4983882;28;20058;-75
2023/02/24 04:15:18;;;;;;;0.80;0.50;;;;;;;0.86;69.83;99909.75;4986348;28;20050;-75
2023/02/24 04:17:48;;;;;;;0.80;0.60;;;;;;;0.87;70.37;99908.03;4981706;28;20047;-75
2023/02/24 04:20:19;;;;;;;1.60;0.70;;;;;;;0.89;70.77;99908.94;4984802;28;20065;-76
2023/02/24 04:22:51;;;;;;;1.52;0.65;;;;;;;0.87;70.15;99911.47;4986596;28;20169;-75
2023/02/24 04:25:23;;;;;;;2.78;0.60;;;;;;;0.88;71.08;99899.47;4984855;28;20042;-75
2023/02/24 04:27:51;;;;;;;0.60;0.50;;;;;;;0.81;70.25;99878.00;4984542;28;20057;-75
2023/02/24 04:30:19;;;;;;;0.82;0.60;;;;;;;0.89;70.63;99898.63;4981091;28;20050;-75
2023/02/24 04:32:46;;;;;;;1.85;0.65;;;;;;;0.89;70.12;99896.94;4986299;28;20054;-75
2023/02/24 04:35:16;;;;;;;1.35;0.65;;;;;;;0.90;70.86;99900.34;4986065;28;20056;-75
2023/02/24 04:37:44;;;;;;;1.30;1.20;;;;;;;0.90;71.16;99892.63;4982845;28;20491;-75
2023/02/24 04:40:15;;;;;;;0.60;0.47;;;;;;;0.89;70.45;99899.50;4986564;28;20050;-75
2023/02/24 04:42:47;;;;;;;0.93;0.47;;;;;;;0.87;70.43;99885.75;4984370;28;20529;-75
2023/02/24 04:45:16;;;;;;;1.75;0.68;;;;;;;0.90;70.84;99896.06;4983112;28;20058;-75
2023/02/24 04:47:48;;;;;;;0.80;0.45;;;;;;;0.88;70.65;99882.38;4978049;28;20058;-78
2023/02/24 04:50:21;;;;;;;0.75;0.40;;;;;;;0.78;70.44;99864.28;4976574;28;20581;-75
2023/02/24 04:52:50;;;;;;;1.38;0.40;;;;;;;0.89;70.68;99883.22;4976894;28;20613;-75
2023/02/24 04:55:21;;;;;;;2.80;0.52;;;;;;;0.89;70.72;99875.50;4980401;28;20061;-75
2023/02/24 04:57:48;;;;;;;1.15;0.57;;;;;;;0.83;70.86;99872.91;4973038;28;20071;-75
2023/02/24 05:00:21;;;;;;;0.77;0.60;;;;;;;0.80;70.71;99862.59;4980095;28;20061;-76
2023/02/24 05:02:49;;;;;;;1.02;0.70;;;;;;;0.88;70.88;99878.91;4982812;28;20482;-75
2023/02/24 05:05:17;;;;;;;1.23;0.60;;;;;;;0.88;70.98;99876.34;4972936;28;20046;-76
2023/02/24 05:07:46;;;;;;;0.90;0.52;;;;;;;0.87;70.54;99875.47;4982754;28;20047;-75
2023/02/24 05:10:14;;;;;;;0.70;0.55;;;;;;;0.83;70.88;99867.75;4984912;28;20049;-75
2023/02/24 05:12:43;;;;;;;0.70;0.50;;;;;;;0.81;70.19;99862.59;4984241;28;20108;-75
2023/02/24 05:15:11;;;;;;;1.90;0.50;;;;;;;0.88;71.15;99881.47;4974233;28;20055;-75
2023/02/24 05:17:39;;;;;;;1.08;0.60;;;;;;;0.79;70.44;99860.84;4984413;28;20057;-75
2023/02/24 05:22:52;;;;;;;1.15;0.50;;;;;;;0.86;70.12;99868.63;4982607;28;20057;-75
2023/02/24 05:25:20;;;;;;;0.40;0.30;;;;;;;0.87;70.42;99864.34;4966294;28;20056;-75
2023/02/24 05:27:48;;;;;;;0.82;0.40;;;;;;;0.86;70.43;99863.47;4969185;28;20057;-75
2023/02/24 05:30:17;;;;;;;0.93;0.50;;;;;;;0.82;70.43;99854.00;4974481;28;20137;-75
2023/02/24 05:32:44;;;;;;;0.50;0.40;;;;;;;0.87;70.86;99854.06;4976792;28;20050;-75
2023/02/24 05:35:11;;;;;;;1.10;0.70;;;;;;;0.88;70.30;99866.03;4970733;28;20049;-75
2023/02/24 05:37:41;;;;;;;1.30;0.40;;;;;;;0.83;70.55;99852.34;4972064;28;20042;-75
2023/02/24 05:40:12;;;;;;;1.02;0.40;;;;;;;0.85;70.77;99850.59;4978931;28;20058;-75
2023/02/24 05:42:40;;;;;;;0.55;0.30;;;;;;;0.87;70.62;99848.91;4980260;28;20500;-75
2023/02/24 05:45:11;;;;;;;2.97;0.43;;;;;;;0.87;70.44;99851.47;4970311;28;20042;-75
2023/02/24 05:47:38;;;;;;;0.57;0.30;;;;;;;0.87;70.23;99859.19;4980355;28;20047;-75
2023/02/24 05:50:08;;;;;;;0.30;0.20;;;;;;;0.85;70.23;99848.91;4969353;28;20061;-76
2023/02/24 05:52:36;;;;;;;1.05;0.20;;;;;;;0.86;70.52;99853.19;4980757;28;20050;-75
2023/02/24 05:55:06;;;;;;;2.20;0.20;;;;;;;0.85;69.80;99845.47;4973940;28;20058;-75
2023/02/24 05:57:36;;;;;;;0.22;0.22;;;;;;;0.84;70.19;99843.75;4973502;28;20050;-75
2023/02/24 06:00:13;;;;;;;1.70;0.43;;;;;;;0.82;69.41;99840.31;4985908;28;20054;-76
2023/02/24 06:02:48;;;;;;;2.25;1.23;;;;;;;0.81;70.78;99839.44;4972507;28;20501;-76
2023/02/24 06:05:25;;;;;;;0.30;0.20;;;;;;;0.81;70.43;99838.59;4981594;28;20148;-75
2023/02/24 06:08:03;;;;;;;1.23;0.28;;;;;;;0.81;69.80;99838.59;4975352;28;20133;-74
2023/02/24 06:10:32;;;;;;;0.35;0.20;;;;;;;0.79;69.84;99835.16;4973387;28;20062;-74
2023/02/24 06:13:01;;;;;;;0.55;0.40;;;;;;;0.79;70.15;99833.44;4982465;28;20484;-75
2023/02/24 06:15:28;;;;;;;0.68;0.25;;;;;;;0.80;69.68;99834.31;4980629;28;20478;-74
2023/02/24 06:17:59;;;;;;;0.30;0.20;;;;;;;0.74;69.69;99826.53;4974560;28;20130;-74
2023/02/24 06:20:27;;;;;;;0.30;0.17;;;;;;;0.76;69.71;99832.56;4978690;28;20115;-74
2023/02/24 06:22:56;;;;;;;0.30;0.10;;;;;;;0.74;69.79;99832.56;4977760;28;20039;-74
2023/02/24 06:25:24;;;;;;;0.32;0.10;;;;;;;0.75;70.13;99823.16;4981932;28;20055;-74
2023/02/24 06:27:53;;;;;;;0.30;0.10;;;;;;;0.75;69.63;99820.56;4976511;28;20056;-73
2023/02/24 06:30:22;;;;;;;0.20;0.10;;;;;;;0.71;69.95;99805.97;4980473;28;20131;-74
2023/02/24 06:32:50;;;;;;;0.50;0.35;;;;;;;0.71;69.52;99806.81;4987256;28;20050;-74
2023/02/24 06:35:19;;;;;;;1.15;0.20;;;;;;;0.70;69.72;99810.25;4985667;28;20081;-73
2023/02/24 06:37:46;;;;;;;0.45;0.10;;;;;;;0.69;69.53;99808.53;4973659;28;20043;-74
2023/02/24 06:40:16;;;;;;;0.98;0.10;;;;;;;0.70;69.69;99811.97;4981654;28;20057;-74
2023/02/24 06:42:47;;;;;;;0.68;0.20;;;;;;;0.71;69.61;99805.97;4978798;28;20145;-73
2023/02/24 06:45:15;;;;;;;0.85;0.30;;;;;;;0.70;69.51;99797.41;4977930;28;20812;-74
2023/02/24 06:47:47;;;;;;;0.30;0.10;;;;;;;0.70;69.07;99799.97;4981592;28;20062;-74
2023/02/24 06:50:15;;;;;;;2.33;0.20;;;;;;;0.72;69.87;99803.41;4976940;28;20129;-74
2023/02/24 06:52:44;;;;;;;0.82;0.30;;;;;;;0.71;69.39;99793.97;4969808;28;20046;-74
2023/02/24 06:55:24;;;;;;;0.40;0.20;;;;;;;0.72;70.00;99792.28;4981696;28;20080;-74
2023/02/24 06:57:55;;;;;;;1.40;0.25;;;;;;;0.73;70.21;99794.00;4979090;28;20576;-74
2023/02/24 07:00:26;;;;;;;0.73;0.20;;;;;;;0.53;69.82;99765.59;4970010;28;20974;-74
2023/02/24 07:02:55;;;;;;;0.20;0.20;;;;;;;0.74;69.46;99790.56;4976500;28;20104;-75
2023/02/24 07:05:23;;;;;;;0.52;0.10;;;;;;;0.73;69.37;99794.00;4970796;28;20074;-75
2023/02/24 07:07:51;;;;;;;0.30;0.17;;;;;;;0.74;69.51;99794.00;4975388;28;20085;-75
2023/02/24 07:10:18;;;;;;;0.30;0.10;;;;;;;0.75;69.25;99792.28;4978320;28;20053;-75
2023/02/24 07:12:45;;;;;;;0.30;0.10;;;;;;;0.75;69.45;99802.56;4967207;28;20058;-75
2023/02/24 07:15:14;;;;;;;0.20;0.10;;;;;;;0.61;69.13;99772.50;4944569;28;20054;-76
2023/02/24 07:17:42;;;;;;;0.20;0.10;;;;;;;0.75;70.01;99795.72;4977398;28;20047;-76
2023/02/24 07:20:23;;;;;;;0.43;0.20;;;;;;;0.73;69.21;99789.69;4975336;28;20110;-76
2023/02/24 07:22:52;;;;;;;0.52;0.10;;;;;;;0.66;69.48;99782.81;4977924;28;20060;-76
2023/02/24 07:25:32;;;;;;;0.50;0.13;;;;;;;0.75;69.33;99789.72;4973474;28;20522;-76
2023/02/24 07:28:00;;;;;;;0.25;0.10;;;;;;;0.77;69.57;99781.19;4974943;28;20133;-77
2023/02/24 07:30:28;;;;;;;0.20;0.10;;;;;;;0.77;69.73;99782.84;4969952;28;20054;-76
2023/02/24 07:32:56;;;;;;;0.25;0.10;;;;;;;0.73;69.10;99778.56;4977903;28;20162;-77
2023/02/24 07:35:23;;;;;;;0.52;0.10;;;;;;;0.80;69.32;99786.34;4980091;28;20043;-76
2023/02/24 07:37:54;;;;;;;0.20;0.10;;;;;;;0.81;69.63;99787.19;4976302;28;20121;-76
2023/02/24 07:40:21;;;;;;;0.90;0.10;;;;;;;0.82;69.92;99783.75;4973085;28;20527;-76
2023/02/24 07:42:48;;;;;;;1.02;0.10;;;;;;;0.81;69.62;99776.91;4972912;28;20483;-71
2023/02/24 07:45:16;;;;;;;0.22;0.10;;;;;;;0.84;69.67;99777.78;4966853;28;20048;-71
2023/02/24 07:47:43;;;;;;;1.42;0.20;;;;;;;0.83;69.27;99773.50;4971118;28;20512;-73
2023/02/24 07:50:13;;;;;;;0.80;0.10;;;;;;;0.86;69.08;99777.78;4966441;28;20050;-73
2023/02/24 07:52:40;;;;;;;0.13;0.10;;;;;;;0.87;69.31;99776.94;4971951;28;20084;-72
2023/02/24 07:55:09;;;;;;;0.35;0.10;;;;;;;0.89;69.54;99776.09;4983154;28;20559;-72
2023/02/24 07:57:37;;;;;;;0.38;0.10;;;;;;;0.91;68.65;99773.50;4978735;28;20053;-74
2023/02/24 08:00:17;;;;;;;0.10;0.10;;;;;;;0.92;69.01;99770.09;4979987;28;20046;-72
2023/02/24 08:02:45;;;;;;;1.45;0.20;;;;;;;0.94;68.69;99770.09;4970465;28;20049;-74
2023/02/24 08:05:11;;;;;;;0.20;0.10;;;;;;;0.95;68.56;99772.69;4975443;28;20561;-74
2023/02/24 08:07:39;;;;;;;0.40;0.10;;;;;;;0.94;69.06;99764.94;4978133;28;20051;-73
2023/02/24 08:10:23;;;;;;;0.15;0.10;;;;;;;0.96;68.63;99768.38;4972911;28;20057;-73
2023/02/24 08:12:53;;;;;;;0.10;0.10;;;;;;;0.96;69.37;99758.97;4973318;28;20663;-73
2023/02/24 08:15:23;;;;;;;0.40;0.10;;;;;;;1.00;69.25;99765.84;4977882;28;20462;-74
2023/02/24 08:17:52;;;;;;;0.20;0.10;;;;;;;0.98;69.27;99756.41;4980671;28;20134;-73
2023/02/24 08:20:24;;;;;;;0.17;0.10;;;;;;;1.03;69.10;99762.44;4978959;28;20050;-72
2023/02/24 08:22:52;;;;;;;0.13;0.10;;;;;;;1.03;69.28;99758.16;4972966;28;20054;-71
2023/02/24 08:25:23;;;;;;;0.73;0.10;;;;;;;1.05;68.81;99766.75;4979678;28;20046;-73
2023/02/24 08:27:55;;;;;;;0.70;0.20;;;;;;;1.07;68.74;99765.00;4980363;28;20546;-73
2023/02/24 08:30:24;;;;;;;0.35;0.15;;;;;;;1.05;68.68;99764.16;4978244;28;20047;-72
2023/02/24 08:32:56;;;;;;;0.30;0.20;;;;;;;1.09;69.26;99760.72;4970587;28;20104;-74
2023/02/24 08:35:30;;;;;;;1.10;0.20;;;;;;;1.12;68.36;99762.47;4976697;28;20046;-73
2023/02/24 08:38:03;;;;;;;0.10;0.10;;;;;;;1.13;68.78;99762.44;4968062;28;20125;-74
2023/02/24 08:40:48;;;;;;;0.30;0.10;;;;;;;1.13;69.45;99756.44;4974869;28;20479;-73
2023/02/24 08:43:23;;;;;;;0.93;0.10;;;;;;;1.11;69.04;99743.59;4984975;28;20047;-74
2023/02/24 08:45:55;;;;;;;0.50;0.10;;;;;;;1.18;68.93;99746.19;4979655;28;20046;-76
2023/02/24 08:48:35;;;;;;;0.30;0.10;;;;;;;1.20;69.13;99744.50;4983983;28;20074;-75
2023/02/24 08:51:09;;;;;;;0.20;0.20;;;;;;;1.21;68.32;99746.19;4981866;28;20054;-76
2023/02/24 08:53:39;;;;;;;0.20;0.10;;;;;;;1.21;68.10;99741.06;4985413;28;20075;-71
2023/02/24 08:56:10;;;;;;;0.10;0.10;;;;;;;1.21;69.17;99739.34;4977087;28;20414;-72
2023/02/24 08:58:45;;;;;;;0.55;0.10;;;;;;;1.24;68.03;99734.19;4982421;28;20043;-74
2023/02/24 09:01:18;;;;;;;1.23;0.10;;;;;;;1.26;68.40;99737.63;4974117;28;20071;-72
2023/02/24 09:03:47;;;;;;;0.28;0.10;;;;;;;1.30;68.57;99733.34;4975548;28;20510;-73
2023/02/24 09:06:16;;;;;;;1.55;0.20;;;;;;;1.32;68.74;99731.66;4984755;28;20046;-74
2023/02/24 09:08:45;;;;;;;1.08;0.10;;;;;;;1.36;68.62;99725.66;4981420;28;20104;-74
2023/02/24 09:11:15;;;;;;;0.77;0.10;;;;;;;1.37;68.59;99719.66;4978960;28;20679;-73
2023/02/24 09:13:51;;;;;;;2.65;0.10;;;;;;;1.39;68.25;99723.06;4980082;28;20061;-73
2023/02/24 09:16:19;;;;;;;0.75;0.30;;;;;;;1.43;68.79;99713.66;4982686;28;20046;-74
2023/02/24 09:19:13;;;;;;;0.45;0.10;;;;;;;1.44;68.62;99713.66;4981609;28;20050;-73
2023/02/24 09:24:25;;;;;;;0.45;0.10;;;;;;;1.43;67.78;99699.06;4984136;28;20073;-73
2023/02/24 09:26:57;;;;;;;1.83;0.10;;;;;;;1.52;68.32;99709.38;4982682;28;20038;-73
2023/02/24 09:29:34;;;;;;;0.55;0.47;;;;;;;1.52;67.56;99706.81;4974713;28;20507;-74
2023/02/24 09:32:04;;;;;;;0.45;0.10;;;;;;;1.54;68.32;99709.41;4981953;28;20047;-72
2023/02/24 09:34:32;;;;;;;0.30;0.10;;;;;;;1.54;68.34;99705.09;4986174;28;20074;-72
2023/02/24 09:37:02;;;;;;;1.23;0.10;;;;;;;1.55;68.04;99704.22;4980766;28;20053;-72
2023/02/24 09:40:37;;;;;;;0.10;0.10;;;;;;;1.57;67.68;99710.25;4974319;28;20055;-72
2023/02/24 09:42:31;;;;;;;0.30;0.10;;;;;;;1.60;67.65;99708.53;4978743;28;20046;-73
2023/02/24 09:45:02;;;;;;;0.20;0.10;;;;;;;1.61;68.12;99710.25;4976269;28;20050;-73
2023/02/24 09:47:55;;;;;;;0.13;0.08;;;;;;;1.61;67.46;99710.25;4982383;28;20471;-73
2023/02/24 09:50:44;;;;;;;0.13;0.10;;;;;;;1.63;67.80;99704.25;4980784;28;20428;-73
2023/02/24 09:53:17;;;;;;;0.17;0.10;;;;;;;1.65;67.54;99707.69;4980391;28;20082;-74
2023/02/24 09:56:03;;;;;;;0.45;0.10;;;;;;;1.65;67.08;99701.66;4969988;28;20608;-73
2023/02/24 09:58:46;;;;;;;0.15;0.10;;;;;;;1.69;67.36;99704.25;4981177;28;20112;-73
2023/02/24 10:01:29;;;;;;;1.67;0.20;;;;;;;1.72;67.55;99704.25;4973222;28;21001;-73
2023/02/24 10:04:04;;;;;;;0.40;0.10;;;;;;;1.74;67.39;99696.53;4983459;28;20582;-74
2023/02/24 10:06:39;;;;;;;0.30;0.10;;;;;;;1.75;67.53;99693.09;4974111;28;20042;-73
2023/02/24 10:09:14;;;;;;;0.90;0.10;;;;;;;1.78;66.90;99700.81;4980295;28;20499;-73
2023/02/24 10:11:52;;;;;;;1.23;0.30;;;;;;;1.80;67.13;99691.38;4973282;28;20643;-74
2023/02/24 10:14:34;;;;;;;0.17;0.10;;;;;;;1.85;67.10;99694.81;4980193;28;20050;-74
2023/02/24 10:19:55;;;;;;;2.05;0.10;;;;;;;1.87;67.33;99689.66;4978485;28;20054;-75
2023/02/24 10:22:28;;;;;;;1.95;0.10;;;;;;;1.87;67.66;99682.78;4978646;28;20053;-74
2023/02/24 10:25:10;;;;;;;0.95;0.10;;;;;;;1.89;67.31;99686.22;4972088;28;20065;-74
2023/02/24 10:27:57;;;;;;;0.75;0.17;;;;;;;1.93;66.87;99692.22;4978053;28;20050;-74
2023/02/24 10:30:39;;;;;;;0.28;0.28;;;;;;;1.93;66.84;99687.91;4973560;28;20058;-74
2023/02/24 10:33:17;;;;;;;0.35;0.20;;;;;;;1.95;67.08;99688.78;4972160;28;20106;-74
2023/02/24 10:35:44;;;;;;;1.85;0.10;;;;;;;1.95;66.67;99681.06;4980216;28;20050;-75
2023/02/24 10:38:11;;;;;;;2.97;0.10;;;;;;;1.93;66.89;99677.63;4980298;28;20064;-74
2023/02/24 10:40:51;;;;;;;2.05;0.75;;;;;;;1.96;67.18;99676.75;4978686;28;20047;-74
2023/02/24 10:43:28;;;;;;;0.47;0.10;;;;;;;1.96;66.94;99677.63;4975143;28;20049;-74
2023/02/24 10:46:04;;;;;;;0.40;0.10;;;;;;;1.99;67.02;99669.91;4972718;28;20053;-75
2023/02/24 10:48:37;;;;;;;1.60;0.10;;;;;;;2.01;66.97;99667.31;4982016;28;20050;-75
2023/02/24 10:51:17;;;;;;;0.25;0.10;;;;;;;2.02;67.04;99672.47;4974504;28;20061;-74
2023/02/24 10:53:52;;;;;;;1.38;0.10;;;;;;;2.05;67.01;99666.47;4982783;28;20050;-73
2023/02/24 10:56:26;;;;;;;0.20;0.10;;;;;;;2.06;66.55;99663.03;4978578;28;20157;-75
2023/02/24 10:59:19;;;;;;;1.87;0.10;;;;;;;2.09;66.85;99657.00;4984954;28;20047;-73
2023/02/24 11:01:59;;;;;;;0.35;0.10;;;;;;;2.10;67.08;99663.84;4971795;28;20078;-74
2023/02/24 11:04:43;;;;;;;0.22;0.10;;;;;;;2.13;67.34;99656.13;4982307;28;20061;-73
2023/02/24 11:07:23;;;;;;;1.40;0.10;;;;;;;2.14;66.85;99647.56;4976138;28;20129;-73
2023/02/24 11:10:09;;;;;;;0.45;0.10;;;;;;;2.17;67.46;99642.38;4979696;28;20058;-73
2023/02/24 11:18:18;;;;;;;0.17;0.10;;;;;;;2.22;67.06;99628.63;4982279;28;20781;-73
2023/02/24 11:20:47;;;;;;;0.32;0.10;;;;;;;2.23;66.74;99635.50;4976109;28;20057;-73
2023/02/24 11:23:17;;;;;;;0.28;0.10;;;;;;;2.21;66.62;99631.19;4981347;28;20152;-73
2023/02/24 11:25:48;;;;;;;2.17;0.10;;;;;;;2.23;66.52;99624.34;4980669;28;20046;-74
2023/02/24 11:28:29;;;;;;;1.85;0.20;;;;;;;2.23;66.50;99624.34;4976321;28;20065;-74
2023/02/24 11:31:06;;;;;;;1.00;0.20;;;;;;;2.21;66.74;99620.91;4970940;28;20522;-74
2023/02/24 11:33:41;;;;;;;0.40;0.10;;;;;;;2.24;66.17;99626.88;4973353;28;20491;-73
2023/02/24 11:36:19;;;;;;;0.25;0.10;;;;;;;2.16;66.71;99604.59;4971600;28;20598;-74
2023/02/24 11:38:54;;;;;;;0.20;0.10;;;;;;;2.29;66.44;99624.31;4981510;28;20050;-75
2023/02/24 11:41:25;;;;;;;2.17;0.20;;;;;;;2.32;66.16;99618.28;4977606;28;20422;-73
2023/02/24 11:44:00;;;;;;;1.80;0.10;;;;;;;2.34;66.36;99621.72;4980528;28;20050;-73
2023/02/24 11:46:36;;;;;;;0.20;0.10;;;;;;;2.35;66.24;99616.56;4981732;28;20502;-74
2023/02/24 11:49:17;;;;;;;1.38;0.20;;;;;;;2.35;66.53;99624.28;4969639;28;20057;-73
2023/02/24 11:51:44;;;;;;;0.52;0.20;;;;;;;2.35;66.52;99611.41;4973569;28;20042;-71
2023/02/24 11:54:16;;;;;;;0.75;0.20;;;;;;;2.34;66.79;99620.00;4971592;28;20078;-71
2023/02/24 11:56:47;;;;;;;2.15;0.38;;;;;;;2.31;66.49;99612.28;4976107;28;20061;-73
2023/02/24 11:59:19;;;;;;;2.25;0.10;;;;;;;2.36;66.57;99614.81;4979530;28;20050;-72
2023/02/24 12:01:54;;;;;;;0.88;0.20;;;;;;;2.36;66.44;99610.56;4979069;28;20042;-72
2023/02/24 12:04:27;;;;;;;4.88;0.20;;;;;;;2.25;66.46;99589.13;4977112;28;20050;-74
2023/02/24 12:06:59;;;;;;;1.77;0.10;;;;;;;2.38;66.54;99610.53;4978676;28;20590;-73
2023/02/24 12:09:30;;;;;;;1.13;0.20;;;;;;;2.39;66.46;99610.53;4963858;28;20047;-72
2023/02/24 12:12:00;;;;;;;1.50;0.17;;;;;;;2.41;66.71;99607.94;4977575;28;20053;-73
2023/02/24 12:14:35;;;;;;;2.28;0.20;;;;;;;2.40;66.30;99598.50;4977720;28;20046;-74
2023/02/24 12:17:16;;;;;;;0.80;0.23;;;;;;;2.41;66.21;99595.91;4977265;28;20042;-72
2023/02/24 12:19:56;;;;;;;0.35;0.22;;;;;;;2.47;66.88;99597.59;4982332;28;20057;-75